Time;durP1;ratioP1;P1;durP2;ratioP2;P2;SDS_P1;SDS_P2;PMS_P1;PMS_P2;Temp;Humidity;BMP_temperature;BMP_pressure;BME280_temperature;BME280_humidity;BME280_pressure;Samples;Min_cycle;Max_cycle;Signal;HPM_P1;HPM_P2
2022/08/03 00:01:49;;;;;;;3.67;1.30;;;19.50;99.90;;;;;;4839793;29;20065;-66
2022/08/03 00:04:16;;;;;;;6.18;1.58;;;19.50;99.90;;;;;;4837238;29;20106;-66
2022/08/03 00:06:41;;;;;;;4.88;1.38;;;19.50;99.90;;;;;;4836863;29;20452;-66
2022/08/03 00:09:07;;;;;;;6.15;1.73;;;19.50;99.90;;;;;;4837152;29;20060;-66
2022/08/03 00:11:33;;;;;;;4.65;1.52;;;19.50;99.90;;;;;;4840145;29;20046;-65
2022/08/03 00:13:59;;;;;;;5.18;1.90;;;19.50;99.90;;;;;;4844299;29;20105;-66
2022/08/03 00:16:25;;;;;;;5.22;1.90;;;19.50;99.90;;;;;;4858983;29;20045;-66
2022/08/03 00:18:51;;;;;;;6.00;1.58;;;19.50;99.90;;;;;;4839848;29;20065;-67
2022/08/03 00:21:16;;;;;;;6.20;1.90;;;19.50;99.90;;;;;;4858316;29;20189;-66
2022/08/03 00:23:42;;;;;;;8.25;2.08;;;19.50;99.90;;;;;;4854583;29;20132;-66
2022/08/03 00:26:08;;;;;;;7.15;1.75;;;19.40;99.90;;;;;;4844205;29;20062;-66
2022/08/03 00:28:33;;;;;;;5.85;1.60;;;19.40;99.90;;;;;;4833402;29;20396;-66
2022/08/03 00:30:59;;;;;;;4.72;1.48;;;19.40;99.90;;;;;;4856174;29;20149;-67
2022/08/03 00:33:25;;;;;;;7.50;2.00;;;19.30;99.90;;;;;;4852838;29;20062;-66
2022/08/03 00:35:50;;;;;;;8.43;2.00;;;19.30;99.90;;;;;;4853025;29;20062;-66
2022/08/03 00:38:16;;;;;;;6.57;1.70;;;19.30;99.90;;;;;;4845007;29;20437;-66
2022/08/03 00:40:42;;;;;;;5.05;1.85;;;19.20;99.90;;;;;;4844773;29;20136;-66
2022/08/03 00:43:08;;;;;;;7.07;1.67;;;19.20;99.90;;;;;;4858263;29;20106;-66
2022/08/03 00:45:38;;;;;;;5.47;1.63;;;19.20;99.90;;;;;;4860344;29;20492;-66
2022/08/03 00:48:06;;;;;;;4.72;1.70;;;19.10;99.90;;;;;;4859067;29;20057;-66
2022/08/03 00:50:35;;;;;;;3.88;1.67;;;19.10;99.90;;;;;;4841540;29;20072;-67
2022/08/03 00:53:03;;;;;;;3.33;1.67;;;19.00;99.90;;;;;;4851981;29;20052;-67
2022/08/03 00:55:29;;;;;;;4.20;1.77;;;19.00;99.90;;;;;;4855269;29;20062;-66
2022/08/03 00:57:55;;;;;;;6.68;1.92;;;18.90;99.90;;;;;;4851364;29;20060;-66
2022/08/03 01:00:24;;;;;;;7.75;1.70;;;18.90;99.90;;;;;;4846658;29;20053;-66
2022/08/03 01:02:51;;;;;;;5.15;1.70;;;18.80;99.90;;;;;;4848568;29;20083;-65
2022/08/03 01:05:17;;;;;;;4.38;2.15;;;18.80;99.90;;;;;;4841752;29;20054;-66
2022/08/03 01:08:04;;;;;;;5.53;1.85;;;18.80;99.90;;;;;;4841120;29;20061;-66
2022/08/03 01:10:59;;;;;;;3.45;1.98;;;18.70;99.90;;;;;;4823735;29;20572;-66
2022/08/03 01:13:47;;;;;;;5.00;2.13;;;18.70;99.90;;;;;;4845609;29;20491;-66
2022/08/03 01:16:29;;;;;;;8.27;2.58;;;18.60;99.90;;;;;;4847463;29;20393;-66
2022/08/03 01:19:01;;;;;;;8.20;1.90;;;18.50;99.90;;;;;;4856550;29;20054;-66
2022/08/03 01:21:44;;;;;;;6.65;2.30;;;18.50;99.90;;;;;;4829473;29;20128;-66
2022/08/03 01:24:48;;;;;;;5.25;2.10;;;18.40;99.90;;;;;;4849553;29;20077;-66
2022/08/03 01:27:20;;;;;;;5.95;2.20;;;18.40;99.90;;;;;;4820065;29;20061;-66
2022/08/03 01:30:04;;;;;;;;;;;18.30;99.90;;;;;;4805230;29;20069;-66
2022/08/03 01:32:47;;;;;;;4.70;2.15;;;18.30;99.90;;;;;;4839392;29;20001;-66
2022/08/03 01:35:15;;;;;;;4.03;2.33;;;18.20;99.90;;;;;;4842321;29;20069;-66
2022/08/03 01:37:48;;;;;;;8.35;2.95;;;18.20;99.90;;;;;;4841685;29;20096;-66
2022/08/03 01:40:16;;;;;;;4.13;2.55;;;18.10;99.90;;;;;;4839853;29;20144;-66
2022/08/03 01:42:44;;;;;;;8.77;2.83;;;18.10;99.90;;;;;;4838682;29;20053;-66
2022/08/03 01:45:12;;;;;;;5.15;2.50;;;18.10;99.90;;;;;;4847349;29;20061;-66
2022/08/03 01:47:39;;;;;;;6.32;3.03;;;18.10;99.90;;;;;;4842939;29;20068;-66
2022/08/03 01:50:07;;;;;;;7.93;2.70;;;18.10;99.90;;;;;;4841692;29;20054;-66
2022/08/03 01:52:36;;;;;;;7.25;2.50;;;18.00;99.90;;;;;;4839644;29;20129;-66
2022/08/03 01:55:02;;;;;;;6.90;2.90;;;18.00;99.90;;;;;;4826170;29;20054;-66
2022/08/03 01:57:29;;;;;;;4.35;2.42;;;18.00;99.90;;;;;;4826163;29;20511;-66
2022/08/03 01:59:57;;;;;;;11.73;3.22;;;17.90;99.90;;;;;;4820321;29;20081;-66
2022/08/03 02:02:24;;;;;;;6.15;2.88;;;17.90;99.90;;;;;;4834763;29;22373;-66
2022/08/03 02:04:53;;;;;;;6.07;3.22;;;17.90;99.90;;;;;;4818679;29;20161;-66
2022/08/03 02:07:19;;;;;;;4.65;2.63;;;17.80;99.90;;;;;;4833930;29;20058;-66
2022/08/03 02:09:49;;;;;;;7.15;2.85;;;17.80;99.90;;;;;;4834774;29;20094;-66
2022/08/03 02:12:15;;;;;;;7.25;2.67;;;17.80;99.90;;;;;;4834586;29;20068;-66
2022/08/03 02:14:44;;;;;;;6.60;2.92;;;17.70;99.90;;;;;;4834398;29;20050;-66
2022/08/03 02:17:13;;;;;;;5.28;3.20;;;17.70;99.90;;;;;;4836526;29;20504;-66
2022/08/03 02:19:41;;;;;;;7.40;2.88;;;17.70;99.90;;;;;;4834281;29;20140;-66
2022/08/03 02:22:10;;;;;;;8.90;3.28;;;17.70;99.90;;;;;;4825828;29;20065;-66
2022/08/03 02:24:36;;;;;;;10.00;2.90;;;17.70;99.90;;;;;;4845052;29;20058;-65
2022/08/03 02:27:06;;;;;;;7.72;3.08;;;17.70;99.90;;;;;;4845942;29;20057;-65
2022/08/03 02:29:34;;;;;;;4.30;3.10;;;17.70;99.90;;;;;;4852308;29;20130;-65
2022/08/03 02:32:03;;;;;;;5.43;2.92;;;17.70;99.90;;;;;;4843981;29;20057;-66
2022/08/03 02:34:32;;;;;;;9.07;3.10;;;17.60;99.90;;;;;;4856920;29;20514;-66
2022/08/03 02:37:02;;;;;;;8.02;3.15;;;17.60;99.90;;;;;;4855361;29;20081;-66
2022/08/03 02:39:32;;;;;;;5.95;3.20;;;17.60;99.90;;;;;;4843273;29;20171;-66
2022/08/03 02:42:04;;;;;;;6.05;3.13;;;17.60;99.90;;;;;;4845381;29;20113;-66
2022/08/03 02:44:33;;;;;;;;;;;17.50;99.90;;;;;;4850353;29;20061;-65
2022/08/03 02:47:03;;;;;;;7.13;2.85;;;17.50;99.90;;;;;;4858104;29;19930;-65
2022/08/03 02:49:29;;;;;;;6.22;2.88;;;17.50;99.90;;;;;;4862655;29;20100;-66
2022/08/03 02:51:56;;;;;;;6.82;3.47;;;17.50;99.90;;;;;;4860150;29;20101;-66
2022/08/03 02:54:25;;;;;;;8.02;3.55;;;17.50;99.90;;;;;;4847363;29;20532;-66
2022/08/03 02:56:53;;;;;;;7.75;3.35;;;17.50;99.90;;;;;;4856328;29;20562;-66
2022/08/03 02:59:20;;;;;;;4.63;2.78;;;17.50;99.90;;;;;;4841409;29;20495;-65
2022/08/03 03:01:46;;;;;;;6.78;2.92;;;17.50;99.90;;;;;;4842567;29;20057;-65
2022/08/03 03:04:13;;;;;;;8.30;3.30;;;17.50;99.90;;;;;;4826984;29;20153;-65
2022/08/03 03:06:40;;;;;;;8.30;3.63;;;17.40;99.90;;;;;;4840640;29;20057;-66
2022/08/03 03:09:06;;;;;;;7.63;3.40;;;17.50;99.90;;;;;;4843478;29;20500;-65
2022/08/03 03:11:34;;;;;;;6.75;3.88;;;17.40;99.90;;;;;;4840828;29;20049;-65
2022/08/03 03:14:01;;;;;;;9.02;3.60;;;17.50;99.90;;;;;;4840162;29;20093;-66
2022/08/03 03:16:29;;;;;;;6.90;3.42;;;17.50;99.90;;;;;;4832287;29;20485;-65
2022/08/03 03:18:56;;;;;;;5.22;2.70;;;17.40;99.90;;;;;;4844860;29;20140;-66
2022/08/03 03:21:22;;;;;;;9.52;3.47;;;17.40;99.90;;;;;;4847071;29;20062;-66
2022/08/03 03:23:49;;;;;;;8.35;3.55;;;17.40;99.90;;;;;;4844775;29;20136;-65
2022/08/03 03:26:15;;;;;;;7.60;3.85;;;17.40;99.90;;;;;;4841761;29;20118;-65
2022/08/03 03:28:41;;;;;;;10.40;3.95;;;17.40;99.90;;;;;;4848260;29;20046;-65
2022/08/03 03:31:08;;;;;;;7.47;3.08;;;17.40;99.90;;;;;;4857490;29;20125;-65
2022/08/03 03:33:34;;;;;;;7.28;3.17;;;17.40;99.90;;;;;;4878083;29;20049;-65
2022/08/03 03:36:00;;;;;;;6.60;3.70;;;17.30;99.90;;;;;;4865167;29;21539;-65
2022/08/03 03:38:26;;;;;;;6.00;3.05;;;17.30;99.90;;;;;;4844800;29;20054;-66
2022/08/03 03:40:52;;;;;;;8.45;3.85;;;17.40;99.90;;;;;;4843987;29;20148;-65
2022/08/03 03:43:18;;;;;;;6.20;3.35;;;17.30;99.90;;;;;;4859373;29;20085;-65
2022/08/03 03:45:45;;;;;;;9.82;3.30;;;17.30;99.90;;;;;;4858234;29;20421;-65
2022/08/03 03:48:11;;;;;;;9.38;3.38;;;17.30;99.90;;;;;;4843990;29;20368;-66
2022/08/03 03:50:39;;;;;;;6.13;3.05;;;17.30;99.90;;;;;;4843341;29;20109;-66
2022/08/03 03:53:08;;;;;;;6.43;3.33;;;17.30;99.90;;;;;;4843847;29;20065;-66
2022/08/03 03:55:34;;;;;;;7.53;3.38;;;17.30;99.90;;;;;;4844831;29;20061;-66
2022/08/03 03:58:00;;;;;;;8.10;3.20;;;17.30;99.90;;;;;;4858883;29;20068;-66
2022/08/03 04:00:25;;;;;;;6.82;2.90;;;17.30;99.90;;;;;;4855042;29;20065;-66
2022/08/03 04:02:51;;;;;;;5.50;3.08;;;17.30;99.90;;;;;;4854597;29;20041;-66
2022/08/03 04:14:25;;;;;;;6.25;2.92;;;17.20;99.90;;;;;;4853827;29;20473;-66
2022/08/03 04:16:56;;;;;;;9.52;3.30;;;17.20;99.90;;;;;;4851951;29;20053;-66
2022/08/03 04:19:51;;;;;;;6.00;2.90;;;17.20;99.90;;;;;;4836728;29;20049;-66
2022/08/03 04:22:21;;;;;;;7.55;3.08;;;17.30;99.90;;;;;;4850068;29;20178;-67
2022/08/03 04:24:54;;;;;;;4.28;2.60;;;17.20;99.90;;;;;;4852387;29;20061;-66
2022/08/03 04:27:27;;;;;;;7.22;2.90;;;17.30;99.90;;;;;;4852823;29;20068;-67
2022/08/03 04:29:58;;;;;;;5.88;3.25;;;17.30;99.90;;;;;;4838931;29;20141;-67
2022/08/03 04:32:27;;;;;;;5.70;2.90;;;17.30;99.90;;;;;;4839448;29;20186;-66
2022/08/03 04:34:53;;;;;;;9.00;3.13;;;17.30;99.90;;;;;;4841073;29;20109;-67
2022/08/03 04:37:42;;;;;;;6.78;2.88;;;17.30;99.90;;;;;;4840373;29;20453;-66
2022/08/03 04:40:13;;;;;;;5.40;3.00;;;17.40;99.90;;;;;;4842805;29;20153;-66
2022/08/03 04:42:40;;;;;;;8.80;3.38;;;17.30;99.90;;;;;;4839027;29;20053;-66
2022/08/03 04:45:10;;;;;;;5.97;2.63;;;17.40;99.90;;;;;;4840778;29;20174;-66
2022/08/03 04:47:37;;;;;;;8.27;2.85;;;17.40;99.90;;;;;;4842613;29;20058;-66
2022/08/03 04:50:04;;;;;;;8.52;2.83;;;17.40;99.90;;;;;;4841421;29;20182;-66
2022/08/03 04:52:30;;;;;;;8.48;3.28;;;17.50;99.90;;;;;;4842709;29;20062;-66
2022/08/03 04:54:56;;;;;;;7.00;3.45;;;17.50;99.90;;;;;;4841145;29;20411;-65
2022/08/03 04:57:22;;;;;;;7.47;3.20;;;17.50;99.90;;;;;;4839454;29;20118;-67
2022/08/03 04:59:51;;;;;;;5.20;2.83;;;17.60;99.90;;;;;;4839840;29;20465;-66
2022/08/03 05:02:17;;;;;;;5.13;2.83;;;17.50;99.90;;;;;;4837317;29;20419;-66
2022/08/03 05:04:45;;;;;;;6.43;3.13;;;17.60;99.90;;;;;;4839956;29;20118;-67
2022/08/03 05:07:11;;;;;;;4.63;2.58;;;17.60;99.90;;;;;;4841551;29;20065;-65
2022/08/03 05:09:37;;;;;;;7.25;3.78;;;17.70;99.90;;;;;;4839786;29;20058;-66
2022/08/03 05:12:04;;;;;;;8.10;3.30;;;17.70;99.90;;;;;;4837555;29;20094;-66
2022/08/03 05:14:29;;;;;;;8.40;3.40;;;17.80;99.90;;;;;;4840209;29;20060;-66
2022/08/03 05:16:55;;;;;;;9.57;3.35;;;17.80;99.90;;;;;;4838080;29;20145;-66
2022/08/03 05:19:21;;;;;;;5.97;3.53;;;17.90;99.90;;;;;;4838189;29;20057;-66
2022/08/03 05:21:46;;;;;;;5.72;3.08;;;17.90;99.90;;;;;;4840172;29;20058;-66
2022/08/03 05:24:12;;;;;;;6.65;4.22;;;18.00;99.90;;;;;;4840329;29;20061;-67
2022/08/03 05:26:37;;;;;;;7.68;3.53;;;18.10;99.90;;;;;;4837596;29;20132;-66
2022/08/03 05:29:03;;;;;;;9.13;4.03;;;18.10;99.90;;;;;;4842413;29;20074;-66
2022/08/03 05:31:29;;;;;;;5.20;3.25;;;18.20;99.90;;;;;;4857152;29;20064;-66
2022/08/03 05:33:56;;;;;;;8.07;3.40;;;18.30;99.90;;;;;;4850574;29;20392;-66
2022/08/03 05:36:21;;;;;;;8.77;4.07;;;18.40;99.90;;;;;;4856445;29;20113;-66
2022/08/03 05:38:47;;;;;;;16.30;4.68;;;18.50;99.90;;;;;;4855159;29;20057;-66
2022/08/03 05:41:20;;;;;;;7.50;3.90;;;18.60;99.90;;;;;;4846215;29;20073;-65
2022/08/03 05:43:46;;;;;;;10.48;4.30;;;18.80;99.90;;;;;;4854223;29;20044;-67
2022/08/03 05:46:12;;;;;;;10.55;4.03;;;19.30;99.90;;;;;;4854289;29;20053;-67
2022/08/03 05:48:38;;;;;;;8.30;3.92;;;20.40;99.90;;;;;;4839608;29;20488;-66
2022/08/03 05:51:09;;;;;;;7.25;3.40;;;21.50;99.90;;;;;;4860325;29;20069;-67
2022/08/03 05:53:35;;;;;;;9.23;3.50;;;22.40;99.90;;;;;;4859469;29;20057;-66
2022/08/03 05:56:01;;;;;;;9.93;3.35;;;23.40;99.90;;;;;;4828870;29;20057;-67
2022/08/03 05:58:26;;;;;;;7.75;3.50;;;23.90;99.90;;;;;;4844183;29;20079;-67
2022/08/03 06:00:52;;;;;;;7.68;3.30;;;24.30;99.90;;;;;;4842533;29;20471;-67
2022/08/03 06:03:18;;;;;;;6.85;2.97;;;24.90;99.90;;;;;;4860104;29;20080;-66
2022/08/03 06:05:44;;;;;;;7.30;2.85;;;25.20;99.90;;;;;;4859737;29;20049;-66
2022/08/03 06:08:10;;;;;;;12.00;3.20;;;25.40;99.90;;;;;;4827075;29;20072;-67
2022/08/03 06:10:36;;;;;;;10.07;3.20;;;25.50;99.90;;;;;;4858588;29;20046;-67
2022/08/03 06:13:01;;;;;;;9.98;3.22;;;25.70;99.90;;;;;;4849151;29;20060;-67
2022/08/03 06:15:27;;;;;;;9.48;3.17;;;25.60;99.90;;;;;;4843646;29;20483;-67
2022/08/03 06:17:52;;;;;;;14.02;2.97;;;25.70;99.90;;;;;;4859594;29;20049;-65
2022/08/03 06:20:19;;;;;;;8.63;2.85;;;25.70;99.90;;;;;;4860479;29;20081;-65
2022/08/03 06:22:46;;;;;;;10.32;2.70;;;25.50;99.90;;;;;;4859886;29;20049;-67
2022/08/03 06:25:12;;;;;;;11.60;3.67;;;25.20;99.90;;;;;;4860732;29;20057;-67
2022/08/03 06:27:39;;;;;;;9.30;2.90;;;24.80;99.90;;;;;;4858977;29;20141;-67
2022/08/03 06:30:07;;;;;;;12.23;3.47;;;24.30;99.90;;;;;;4843890;29;20558;-67
2022/08/03 06:32:33;;;;;;;9.77;3.25;;;23.70;99.90;;;;;;4859804;29;20384;-67
2022/08/03 06:34:59;;;;;;;5.65;2.83;;;23.40;99.90;;;;;;4860082;29;20073;-67
2022/08/03 06:37:25;;;;;;;11.07;3.20;;;23.00;99.90;;;;;;4859526;29;20054;-67
2022/08/03 06:39:52;;;;;;;8.32;2.90;;;22.80;99.90;;;;;;4860260;29;20056;-67
2022/08/03 06:42:17;;;;;;;9.05;3.42;;;22.60;99.90;;;;;;4859289;29;20053;-68
2022/08/03 06:44:43;;;;;;;9.63;3.00;;;22.30;99.90;;;;;;4860058;29;20076;-67
2022/08/03 06:47:09;;;;;;;10.77;3.42;;;22.20;99.90;;;;;;4860125;29;20134;-67
2022/08/03 06:49:34;;;;;;;9.70;2.72;;;22.10;99.90;;;;;;4856843;29;20499;-67
2022/08/03 06:52:00;;;;;;;6.28;2.67;;;22.00;99.90;;;;;;4855527;29;20097;-67
2022/08/03 06:54:25;;;;;;;10.30;2.80;;;22.00;99.90;;;;;;4825558;29;20101;-67
2022/08/03 06:56:51;;;;;;;7.72;2.58;;;22.10;99.90;;;;;;4856130;29;20057;-68
2022/08/03 06:59:17;;;;;;;9.88;2.78;;;22.10;99.90;;;;;;4841302;29;20140;-67
2022/08/03 07:01:42;;;;;;;9.77;2.88;;;22.20;99.90;;;;;;4843030;29;20098;-66
2022/08/03 07:04:08;;;;;;;10.00;3.00;;;22.20;99.90;;;;;;4860010;29;20064;-65
2022/08/03 07:06:33;;;;;;;7.88;3.05;;;22.20;99.90;;;;;;4859235;29;20085;-66
2022/08/03 07:08:59;;;;;;;10.73;3.08;;;22.30;99.90;;;;;;4860046;29;20053;-65
2022/08/03 07:11:25;;;;;;;9.73;2.78;;;22.30;99.90;;;;;;4845040;29;20072;-65
2022/08/03 07:13:50;;;;;;;8.98;2.90;;;22.30;99.90;;;;;;4845161;29;20513;-65
2022/08/03 07:16:16;;;;;;;9.95;3.40;;;22.20;99.90;;;;;;4845194;29;20411;-67
2022/08/03 07:18:41;;;;;;;10.90;3.08;;;22.20;99.90;;;;;;4860692;29;20045;-68
2022/08/03 07:21:09;;;;;;;14.73;3.13;;;22.20;99.90;;;;;;4862962;29;20061;-67
2022/08/03 07:23:35;;;;;;;8.63;2.97;;;22.20;99.90;;;;;;4863217;29;20399;-67
2022/08/03 07:26:01;;;;;;;7.95;3.10;;;22.20;99.90;;;;;;4862539;29;20037;-68
2022/08/03 07:28:26;;;;;;;10.65;2.80;;;22.20;99.90;;;;;;4862420;29;20074;-67
2022/08/03 07:30:52;;;;;;;9.65;3.05;;;22.30;99.90;;;;;;4845866;29;20064;-68
2022/08/03 07:33:18;;;;;;;8.50;2.88;;;22.30;99.90;;;;;;4862996;29;20056;-65
2022/08/03 07:35:43;;;;;;;9.68;2.75;;;22.40;99.90;;;;;;4862241;29;20085;-64
2022/08/03 07:38:09;;;;;;;5.93;2.92;;;22.50;99.90;;;;;;4863171;29;20068;-68
2022/08/03 07:40:34;;;;;;;9.40;3.00;;;22.60;99.90;;;;;;4845907;29;20132;-66
2022/08/03 07:43:02;;;;;;;13.05;3.58;;;22.70;99.90;;;;;;4862465;29;20065;-68
2022/08/03 07:45:28;;;;;;;13.15;3.10;;;22.60;99.90;;;;;;4862651;29;20057;-65
2022/08/03 07:47:54;;;;;;;9.18;3.80;;;22.70;99.90;;;;;;4861969;29;20101;-66
2022/08/03 07:50:20;;;;;;;14.05;2.97;;;22.70;99.90;;;;;;4845770;29;20068;-66
2022/08/03 07:52:48;;;;;;;10.50;3.20;;;22.80;99.90;;;;;;4861930;29;20057;-67
2022/08/03 07:55:15;;;;;;;10.63;3.63;;;22.90;99.90;;;;;;4862635;29;20052;-67
2022/08/03 07:57:41;;;;;;;12.45;3.28;;;22.90;99.90;;;;;;4862249;29;20427;-66
2022/08/03 08:00:16;;;;;;;16.05;3.95;;;23.10;99.90;;;;;;4862685;29;20133;-66
2022/08/03 08:02:42;;;;;;;12.63;3.55;;;23.10;99.90;;;;;;4861757;29;20522;-66
2022/08/03 08:05:09;;;;;;;10.15;3.28;;;23.30;99.90;;;;;;4845248;29;20053;-66
2022/08/03 08:07:36;;;;;;;12.48;3.60;;;23.40;99.90;;;;;;4861803;29;20053;-66
2022/08/03 08:10:04;;;;;;;13.07;3.55;;;23.40;99.90;;;;;;4862522;29;20425;-66
2022/08/03 08:12:30;;;;;;;16.65;4.30;;;23.40;99.90;;;;;;4830405;29;20081;-66
2022/08/03 08:14:56;;;;;;;10.25;3.10;;;23.50;99.90;;;;;;4861421;29;20092;-66
2022/08/03 08:17:21;;;;;;;11.93;3.40;;;23.60;99.90;;;;;;4861716;29;20100;-66
2022/08/03 08:19:47;;;;;;;9.52;3.17;;;23.70;99.90;;;;;;4845712;29;20049;-66
2022/08/03 08:22:12;;;;;;;14.00;3.30;;;23.70;99.90;;;;;;4861290;29;20068;-66
2022/08/03 08:24:38;;;;;;;14.98;4.35;;;23.70;99.90;;;;;;4862201;29;20057;-66
2022/08/03 08:27:04;;;;;;;11.65;3.80;;;23.70;99.90;;;;;;4845621;29;20053;-67
2022/08/03 08:29:30;;;;;;;10.50;3.58;;;23.80;99.90;;;;;;4843772;29;20061;-66
2022/08/03 08:31:55;;;;;;;13.50;3.58;;;23.80;99.90;;;;;;4843316;29;20153;-67
2022/08/03 08:34:21;;;;;;;15.95;3.42;;;23.90;99.90;;;;;;4842720;29;20157;-67
2022/08/03 08:36:46;;;;;;;12.45;3.42;;;24.00;99.90;;;;;;4843121;29;20113;-66
2022/08/03 08:39:12;;;;;;;12.35;3.33;;;24.20;99.90;;;;;;4843390;29;20114;-67
2022/08/03 08:41:37;;;;;;;9.32;3.03;;;24.30;99.90;;;;;;4826546;29;20061;-67
2022/08/03 08:44:03;;;;;;;11.00;2.85;;;24.50;99.90;;;;;;4842718;29;20065;-67
2022/08/03 08:46:31;;;;;;;12.70;3.00;;;24.60;99.90;;;;;;4826591;29;20053;-67
2022/08/03 08:48:58;;;;;;;9.85;2.92;;;24.50;99.90;;;;;;4843347;29;20062;-67
2022/08/03 08:51:30;;;;;;;7.75;2.63;;;24.50;99.90;;;;;;4826268;29;20058;-66
2022/08/03 08:54:00;;;;;;;7.80;2.72;;;24.60;99.90;;;;;;4811413;29;20972;-66
2022/08/03 08:56:25;;;;;;;8.05;2.92;;;24.80;99.90;;;;;;4842733;29;20057;-66
2022/08/03 08:58:54;;;;;;;9.15;2.78;;;24.90;99.90;;;;;;4842831;29;20062;-66
2022/08/03 09:01:20;;;;;;;8.82;2.85;;;24.90;99.90;;;;;;4825537;29;20565;-67
2022/08/03 09:03:46;;;;;;;11.10;3.40;;;25.00;99.90;;;;;;4826079;29;20054;-67
2022/08/03 09:06:12;;;;;;;10.60;3.10;;;25.00;99.90;;;;;;4842096;29;20057;-66
2022/08/03 09:08:37;;;;;;;12.57;3.72;;;25.00;99.90;;;;;;4826013;29;20049;-67
2022/08/03 09:11:03;;;;;;;11.73;2.78;;;25.10;99.90;;;;;;4842247;29;20129;-67
2022/08/03 09:13:29;;;;;;;10.75;2.45;;;25.20;99.90;;;;;;4842133;29;20060;-67
2022/08/03 09:16:18;;;;;;;9.95;2.88;;;25.30;99.90;;;;;;4842299;29;20499;-67
2022/08/03 09:18:52;;;;;;;9.68;2.83;;;25.30;99.90;;;;;;4842774;29;20419;-66
2022/08/03 09:21:19;;;;;;;10.77;2.88;;;25.30;99.90;;;;;;4841905;29;20057;-67
2022/08/03 09:23:52;;;;;;;9.77;2.67;;;25.40;99.90;;;;;;4842637;29;20050;-66
2022/08/03 09:26:28;;;;;;;9.63;2.80;;;25.40;99.90;;;;;;4810552;29;20053;-66
2022/08/03 09:28:59;;;;;;;8.95;2.88;;;25.40;99.90;;;;;;4842754;29;20073;-67
2022/08/03 09:31:30;;;;;;;9.20;2.97;;;25.60;99.90;;;;;;4837761;29;20492;-67
2022/08/03 09:33:59;;;;;;;12.35;3.35;;;25.60;99.90;;;;;;4841928;29;20497;-67
2022/08/03 09:36:40;;;;;;;11.60;2.80;;;25.60;99.90;;;;;;4841672;29;20407;-67
2022/08/03 09:39:10;;;;;;;9.20;2.45;;;25.70;99.90;;;;;;4842156;29;20050;-67
2022/08/03 09:41:40;;;;;;;5.97;2.30;;;25.70;99.90;;;;;;4842412;29;20058;-67
2022/08/03 09:44:05;;;;;;;8.32;2.47;;;25.80;99.90;;;;;;4842683;29;20066;-67
2022/08/03 09:46:32;;;;;;;6.90;2.58;;;25.90;99.90;;;;;;4841782;29;21285;-67
2022/08/03 09:49:11;;;;;;;9.90;2.45;;;25.90;99.90;;;;;;4841266;29;20175;-67
2022/08/03 09:51:36;;;;;;;8.63;2.30;;;26.00;99.90;;;;;;4830938;29;20127;-67
2022/08/03 09:54:03;;;;;;;7.65;2.72;;;26.10;99.90;;;;;;4841040;29;20053;-67
2022/08/03 09:56:43;;;;;;;10.73;2.83;;;26.10;99.90;;;;;;4831579;29;20050;-67
2022/08/03 09:59:21;;;;;;;8.23;2.45;;;26.20;99.90;;;;;;4841160;29;20053;-67
2022/08/03 10:01:47;;;;;;;8.60;3.10;;;26.10;99.90;;;;;;4841217;29;20074;-67
2022/08/03 10:04:15;;;;;;;11.63;2.85;;;26.20;99.90;;;;;;4841377;29;20062;-67
2022/08/03 10:06:59;;;;;;;8.88;2.90;;;26.20;99.90;;;;;;4840816;29;20050;-67
2022/08/03 10:09:25;;;;;;;8.75;3.00;;;26.20;99.90;;;;;;4845445;29;20509;-67
2022/08/03 10:11:51;;;;;;;12.85;3.03;;;26.20;99.90;;;;;;4841621;29;20053;-67
2022/08/03 10:14:17;;;;;;;12.35;3.13;;;26.30;99.90;;;;;;4825993;29;20078;-67
2022/08/03 10:16:45;;;;;;;11.40;2.83;;;26.40;99.90;;;;;;4823433;29;20573;-67
2022/08/03 10:19:10;;;;;;;9.80;2.75;;;26.40;99.90;;;;;;4833159;29;20145;-67
2022/08/03 10:21:39;;;;;;;12.65;3.47;;;26.50;99.90;;;;;;4840869;29;20483;-67
2022/08/03 10:24:06;;;;;;;12.93;3.33;;;26.60;99.90;;;;;;4841721;29;20062;-67
2022/08/03 10:26:36;;;;;;;10.52;2.60;;;26.80;99.90;;;;;;4841328;29;20054;-67
2022/08/03 10:29:10;;;;;;;11.82;2.72;;;26.80;99.90;;;;;;4841263;29;20445;-66
2022/08/03 10:31:40;;;;;;;10.43;3.03;;;26.80;99.90;;;;;;4855466;29;20109;-67
2022/08/03 10:34:22;;;;;;;9.30;2.83;;;26.90;99.90;;;;;;4843068;29;20111;-67
2022/08/03 10:36:50;;;;;;;12.02;2.92;;;26.90;99.90;;;;;;4859345;29;20431;-67
2022/08/03 10:39:20;;;;;;;10.05;2.90;;;27.00;99.90;;;;;;4859071;29;20061;-67
2022/08/03 10:41:47;;;;;;;13.80;3.20;;;27.10;99.90;;;;;;4859634;29;20057;-68
2022/08/03 10:44:17;;;;;;;11.32;2.63;;;27.20;99.90;;;;;;4846714;29;20522;-68
2022/08/03 10:46:44;;;;;;;11.75;2.72;;;27.10;99.90;;;;;;4861515;29;20060;-67
2022/08/03 10:49:29;;;;;;;11.05;3.08;;;27.20;99.90;;;;;;4831925;29;20086;-68
2022/08/03 10:51:55;;;;;;;16.67;3.00;;;27.20;99.90;;;;;;4861986;29;20054;-67
2022/08/03 10:57:43;;;;;;;12.43;2.85;;;27.60;99.90;;;;;;4846485;29;20053;-68
2022/08/03 11:00:10;;;;;;;13.20;2.55;;;27.70;99.90;;;;;;4863649;29;20050;-68
2022/08/03 11:03:02;;;;;;;12.50;3.22;;;27.70;99.90;;;;;;4860926;29;20132;-68
2022/08/03 11:05:29;;;;;;;11.02;2.42;;;27.80;99.90;;;;;;4846268;29;20086;-67
2022/08/03 11:08:17;;;;;;;12.30;3.10;;;27.90;99.90;;;;;;4862811;29;20057;-68
2022/08/03 11:10:42;;;;;;;13.27;2.95;;;28.00;99.90;;;;;;4863355;29;20190;-68
2022/08/03 11:13:09;;;;;;;11.43;3.25;;;28.10;99.90;;;;;;4862552;29;20128;-67
2022/08/03 11:15:36;;;;;;;8.20;2.75;;;28.10;99.90;;;;;;4845986;29;20054;-68
2022/08/03 11:18:09;;;;;;;16.13;3.05;;;28.00;99.90;;;;;;4863101;29;20061;-68
2022/08/03 11:20:49;;;;;;;15.13;3.65;;;28.10;99.90;;;;;;4858928;29;20085;-68
2022/08/03 11:23:16;;;;;;;15.98;2.70;;;28.10;99.90;;;;;;4862945;29;20057;-68
2022/08/03 11:26:11;;;;;;;13.15;3.45;;;28.20;99.90;;;;;;4846267;29;20068;-68
2022/08/03 11:28:40;;;;;;;16.88;3.58;;;28.10;99.90;;;;;;4844701;29;20422;-68
2022/08/03 11:31:37;;;;;;;12.75;2.90;;;28.10;99.90;;;;;;4851442;29;20093;-67
2022/08/03 11:34:05;;;;;;;15.25;3.30;;;28.10;99.90;;;;;;4817433;29;20136;-67
2022/08/03 11:36:50;;;;;;;10.82;3.45;;;28.00;99.90;;;;;;4853096;29;20064;-68
2022/08/03 11:39:16;;;;;;;15.60;3.00;;;28.10;99.90;;;;;;4829339;29;20564;-67
2022/08/03 11:41:42;;;;;;;10.55;2.72;;;28.20;99.90;;;;;;4859057;29;20045;-68
2022/08/03 11:44:07;;;;;;;14.40;3.22;;;28.30;99.90;;;;;;4838639;29;20514;-67
2022/08/03 11:46:36;;;;;;;15.45;2.95;;;28.40;99.90;;;;;;4843312;29;20050;-68
2022/08/03 11:49:06;;;;;;;11.80;3.05;;;28.50;99.90;;;;;;4840585;29;20098;-68
2022/08/03 11:51:32;;;;;;;14.13;2.92;;;28.50;99.90;;;;;;4827064;29;20053;-67
2022/08/03 11:54:00;;;;;;;12.90;3.10;;;28.50;99.90;;;;;;4844204;29;20117;-67
2022/08/03 11:56:26;;;;;;;12.50;3.22;;;28.60;99.90;;;;;;4848519;29;20482;-68
2022/08/03 11:58:55;;;;;;;18.70;3.20;;;28.70;99.90;;;;;;4854247;29;20069;-68
2022/08/03 12:01:22;;;;;;;13.45;2.70;;;28.60;99.90;;;;;;4843556;29;20527;-68
2022/08/03 12:03:48;;;;;;;12.52;2.88;;;28.70;99.90;;;;;;4844285;29;20073;-67
2022/08/03 12:06:15;;;;;;;11.30;2.60;;;28.70;99.90;;;;;;4843211;29;20046;-68
2022/08/03 12:08:42;;;;;;;9.95;3.08;;;28.80;99.90;;;;;;4844441;29;20111;-67
2022/08/03 12:11:11;;;;;;;10.65;2.97;;;28.90;99.90;;;;;;4844213;29;20061;-67
2022/08/03 12:13:40;;;;;;;15.13;3.33;;;29.00;99.90;;;;;;4827487;29;20090;-67
2022/08/03 12:16:06;;;;;;;12.43;2.70;;;29.00;99.90;;;;;;4827643;29;20062;-68
2022/08/03 12:18:31;;;;;;;17.40;2.90;;;28.90;99.90;;;;;;4843416;29;20054;-67
2022/08/03 12:21:08;;;;;;;14.02;3.03;;;29.00;99.90;;;;;;4842231;29;20058;-67
2022/08/03 12:23:35;;;;;;;11.38;2.75;;;29.00;99.80;;;;;;4827302;29;20426;-68
2022/08/03 12:26:06;;;;;;;15.13;2.72;;;29.10;99.90;;;;;;4834584;29;20083;-68
2022/08/03 12:28:32;;;;;;;14.45;3.03;;;29.20;97.70;;;;;;4841832;29;20395;-67
2022/08/03 12:31:08;;;;;;;12.45;2.80;;;29.30;97.60;;;;;;4855708;29;20113;-67
2022/08/03 12:34:01;;;;;;;10.85;2.20;;;29.40;93.00;;;;;;4859246;29;20125;-67
2022/08/03 12:36:28;;;;;;;11.05;2.60;;;29.40;94.20;;;;;;4858765;29;20045;-66
2022/08/03 12:38:59;;;;;;;12.23;2.58;;;29.50;95.20;;;;;;4845333;29;20057;-66
2022/08/03 12:41:36;;;;;;;13.77;2.72;;;29.50;93.10;;;;;;4845238;29;20049;-67
2022/08/03 12:44:03;;;;;;;13.13;3.20;;;29.60;92.70;;;;;;4861109;29;20061;-66
2022/08/03 12:46:37;;;;;;;9.75;2.20;;;29.70;94.20;;;;;;4860630;29;20061;-67
2022/08/03 12:49:15;;;;;;;11.10;2.53;;;29.60;89.40;;;;;;4859577;29;20137;-67
2022/08/03 12:51:44;;;;;;;7.78;2.42;;;29.70;87.00;;;;;;4842679;29;20053;-66
2022/08/03 12:54:36;;;;;;;16.05;2.92;;;29.70;86.00;;;;;;4851080;29;20405;-67
2022/08/03 12:57:04;;;;;;;11.45;2.20;;;29.60;90.50;;;;;;4843137;29;20170;-67
2022/08/03 12:59:33;;;;;;;8.35;1.95;;;29.60;88.70;;;;;;4860522;29;20369;-67
2022/08/03 13:01:59;;;;;;;12.85;2.58;;;29.80;90.80;;;;;;4855513;29;20054;-67
2022/08/03 13:05:16;;;;;;;12.95;2.45;;;29.80;90.10;;;;;;4843260;29;20081;-67